Skye — WDG4178 — position and weather

sailwx.info

Track history (hours):
 
Tides and Currents Weather Stations Pressure Air Temp Water Temp Dewpoint Dewpoint Depression Visibility Wind Speed Wind Dir Waves Ship Positions

Skye

Owner: Worthington, Ralph, New York, NY. More information available from US FCC via Universal Licensing System and Coast Guard Vessel Documentation Center.

Last reported at 2015-Apr-23 14:33 UTC. Time now 2015-Apr-28 02:01 UTC.
Position N 18°04' W 063°06'.

Length 13 m.

Type: Sailing vessel. MMSI: 367533820.

Date/timePositionNaut miles runAvg speedWind from/ knotsBaromVisibWave heightAir tempDewpointWater temp
2015-Apr-23 14:33N 18°04' W 063°06'4 3.4
2015-Apr-23 13:30N 18°04' W 063°09'4 4.2
2015-Apr-23 12:32N 18°02' W 063°06'0 0.0
2015-Apr-22 21:32N 18°02' W 063°06'0 0.0
2015-Apr-22 20:32N 18°02' W 063°06'0 0.0
2015-Apr-22 19:32N 18°02' W 063°06'0 0.0
2015-Apr-22 18:32N 18°02' W 063°06'0 0.0
2015-Apr-22 17:32N 18°02' W 063°06'0 0.0
2015-Apr-22 16:32N 18°02' W 063°06'0 0.0
2015-Apr-21 21:23N 18°02' W 063°06'2 2.2
2015-Apr-21 20:26N 18°01' W 063°04'0 0.1
2015-Apr-21 15:27N 18°01' W 063°05'2 0.1
2015-Apr-20 20:20N 18°02' W 063°06'1 0.6
2015-Apr-20 19:23N 18°02' W 063°05'0 0.4
2015-Apr-20 18:27N 18°03' W 063°06'1 0.7
2015-Apr-20 17:32N 18°03' W 063°06'0 0.0
2015-Apr-20 16:32N 18°03' W 063°06'0 0.0
2015-Apr-20 15:32N 18°03' W 063°06'0 0.0
2015-Apr-20 14:32N 18°03' W 063°06'  
2015-Apr-13 19:30N 18°03' W 063°06'0 0.1
2015-Apr-13 18:31N 18°03' W 063°06'0 0.0
2015-Apr-13 17:19N 18°03' W 063°06'0 0.0
2015-Apr-13 16:19N 18°03' W 063°06'1 0.8
2015-Apr-13 15:26N 18°02' W 063°06'  
Track history (hours):
 
Tides and Currents Weather Stations Pressure Air Temp Water Temp Dewpoint Dewpoint Depression Visibility Wind Speed Wind Dir Waves Ship Positions

Skye

Owner: Worthington, Ralph, New York, NY. More information available from US FCC via Universal Licensing System and Coast Guard Vessel Documentation Center.

Last reported at 2015-Apr-23 14:33 UTC. Time now 2015-Apr-28 02:01 UTC.
Position N 18°04' W 063°06'.

Length 13 m.

Type: Sailing vessel. MMSI: 367533820.

Date/timePositionNaut miles runAvg speedWind from/ knotsBaromVisibWave heightAir tempDewpointWater temp
2015-Apr-23 14:33N 18°04' W 063°06'4 3.4
2015-Apr-23 13:30N 18°04' W 063°09'4 4.2
2015-Apr-23 12:32N 18°02' W 063°06'0 0.0
2015-Apr-22 21:32N 18°02' W 063°06'0 0.0
2015-Apr-22 20:32N 18°02' W 063°06'0 0.0
2015-Apr-22 19:32N 18°02' W 063°06'0 0.0
2015-Apr-22 18:32N 18°02' W 063°06'0 0.0
2015-Apr-22 17:32N 18°02' W 063°06'0 0.0
2015-Apr-22 16:32N 18°02' W 063°06'0 0.0
2015-Apr-21 21:23N 18°02' W 063°06'2 2.2
2015-Apr-21 20:26N 18°01' W 063°04'0 0.1
2015-Apr-21 15:27N 18°01' W 063°05'2 0.1
2015-Apr-20 20:20N 18°02' W 063°06'1 0.6
2015-Apr-20 19:23N 18°02' W 063°05'0 0.4
2015-Apr-20 18:27N 18°03' W 063°06'1 0.7
2015-Apr-20 17:32N 18°03' W 063°06'0 0.0
2015-Apr-20 16:32N 18°03' W 063°06'0 0.0
2015-Apr-20 15:32N 18°03' W 063°06'0 0.0
2015-Apr-20 14:32N 18°03' W 063°06'  
2015-Apr-13 19:30N 18°03' W 063°06'0 0.1
2015-Apr-13 18:31N 18°03' W 063°06'0 0.0
2015-Apr-13 17:19N 18°03' W 063°06'0 0.0
2015-Apr-13 16:19N 18°03' W 063°06'1 0.8
2015-Apr-13 15:26N 18°02' W 063°06'  

Dump ship's entire track history